createdAt,value
2019-05-29T00:01:14.162Z,99828.59
2019-05-29T00:06:14.565Z,99838.33
2019-05-29T00:11:18.992Z,99848.35
2019-05-29T00:16:25.131Z,99857.14
2019-05-29T00:21:29.481Z,99866.34
2019-05-29T00:26:33.837Z,99874.98
2019-05-29T00:31:38.259Z,99885.80
2019-05-29T00:36:42.678Z,99897.23
2019-05-29T00:41:47.081Z,99897.14
2019-05-29T00:46:51.706Z,99907.30
2019-05-29T00:51:56.246Z,99920.80
2019-05-29T00:57:00.590Z,99929.88
2019-05-29T01:02:05.016Z,99936.59
2019-05-29T01:07:10.212Z,99935.78
2019-05-29T01:12:14.832Z,99941.31
2019-05-29T01:17:19.802Z,99957.58
2019-05-29T01:22:24.356Z,99950.59
2019-05-29T01:27:28.663Z,99964.14
2019-05-29T01:32:33.138Z,99978.05
2019-05-29T01:37:37.431Z,99991.94
2019-05-29T01:42:41.785Z,100002.44
2019-05-29T01:47:46.145Z,100004.26
2019-05-29T01:52:51.585Z,100021.30
2019-05-29T01:57:55.988Z,100028.16
2019-05-29T02:03:00.342Z,100040.13
2019-05-29T02:08:04.851Z,100050.04
2019-05-29T02:13:09.339Z,100056.78
2019-05-29T02:18:13.679Z,100054.40
2019-05-29T02:23:18.013Z,100062.37
2019-05-29T02:28:22.693Z,100064.38
2019-05-29T02:33:28.330Z,100079.04
2019-05-29T02:38:32.810Z,100087.16
2019-05-29T02:43:37.185Z,100099.45
2019-05-29T02:48:41.553Z,100107.12
2019-05-29T02:53:46.012Z,100123.61
2019-05-29T02:58:50.387Z,100141.53
2019-05-29T03:03:54.761Z,100146.91
2019-05-29T03:08:59.490Z,100156.41
2019-05-29T03:14:04.153Z,100173.48
2019-05-29T03:19:08.472Z,100180.84
2019-05-29T03:24:14.876Z,100195.88
2019-05-29T03:29:19.280Z,100199.21
2019-05-29T03:34:23.626Z,100211.60
2019-05-29T03:39:28.143Z,100219.28
2019-05-29T03:44:33.265Z,100228.41
2019-05-29T03:49:38.645Z,100234.25
2019-05-29T03:54:43.019Z,100246.27
2019-05-29T03:59:47.407Z,100255.70
2019-05-29T04:04:51.811Z,100259.05
2019-05-29T04:09:56.154Z,100267.58
2019-05-29T04:15:00.552Z,100273.88
2019-05-29T04:20:06.722Z,100287.95
2019-05-29T04:25:12.184Z,100290.50
2019-05-29T04:30:16.555Z,100308.81
2019-05-29T04:35:20.904Z,100323.64
2019-05-29T04:40:25.303Z,100334.91
2019-05-29T04:45:30.861Z,100345.18
2019-05-29T04:50:36.489Z,100358.66
2019-05-29T04:55:41.400Z,100364.38
2019-05-29T05:00:58.558Z,100369.75
2019-05-29T05:05:51.913Z,100367.52
2019-05-29T05:10:56.271Z,100382.02
2019-05-29T05:16:01.700Z,100384.02
2019-05-29T05:21:06.145Z,100401.22
2019-05-29T05:26:10.570Z,100403.38
2019-05-29T05:31:14.941Z,100408.63
2019-05-29T05:36:19.427Z,100419.17
2019-05-29T05:41:23.771Z,100427.40
2019-05-29T05:46:28.143Z,100443.19
2019-05-29T05:51:33.446Z,100452.48
2019-05-29T05:56:38.254Z,100454.95
2019-05-29T06:01:42.604Z,100462.53
2019-05-29T06:06:46.976Z,100464.66
2019-05-29T06:11:51.469Z,100469.22
2019-05-29T06:16:55.879Z,100477.75
2019-05-29T06:22:00.297Z,100482.27
2019-05-29T06:27:04.625Z,100483.08
2019-05-29T06:32:09.006Z,100487.87
2019-05-29T06:37:13.404Z,100496.30
2019-05-29T06:42:17.868Z,100499.53
2019-05-29T06:47:22.249Z,100503.80
2019-05-29T06:52:26.659Z,100513.77
2019-05-29T06:57:31.076Z,100518.69
2019-05-29T07:02:36.363Z,100518.86
2019-05-29T07:07:42.347Z,100525.77
2019-05-29T07:12:47.270Z,100533.00
2019-05-29T07:17:51.629Z,100545.97
2019-05-29T07:22:56.239Z,100547.27
2019-05-29T07:28:00.607Z,100556.06
2019-05-29T07:33:06.187Z,100556.57
2019-05-29T07:38:10.573Z,100557.70
2019-05-29T07:43:15.226Z,100558.98
2019-05-29T07:48:19.598Z,100567.11
2019-05-29T07:53:23.979Z,100573.69
2019-05-29T07:58:31.027Z,100584.92
2019-05-29T08:03:35.411Z,100587.98
2019-05-29T08:08:39.765Z,100597.31
2019-05-29T08:13:44.150Z,100605.09
2019-05-29T08:18:50.539Z,100592.17
2019-05-29T08:23:54.603Z,100605.07
2019-05-29T08:28:58.949Z,100614.77
2019-05-29T08:34:03.408Z,100615.53
2019-05-29T08:39:07.950Z,100619.64
2019-05-29T08:44:12.328Z,100618.75
2019-05-29T08:49:16.847Z,100629.53
2019-05-29T08:54:24.175Z,100629.97
2019-05-29T08:59:27.298Z,100636.73
2019-05-29T09:04:31.676Z,100637.95
2019-05-29T09:09:36.054Z,100649.31
2019-05-29T09:14:40.561Z,100657.95
2019-05-29T09:19:44.927Z,100663.19
2019-05-29T09:24:49.335Z,100663.81
2019-05-29T09:29:53.715Z,100670.77
2019-05-29T09:34:58.137Z,100671.91
2019-05-29T09:40:02.469Z,100679.36
2019-05-29T09:45:06.970Z,100676.09
2019-05-29T09:50:11.585Z,100682.86
2019-05-29T09:55:16.576Z,100677.27
2019-05-29T10:00:20.993Z,100679.14
2019-05-29T10:05:25.382Z,100689.36
2019-05-29T10:10:29.724Z,100684.77
2019-05-29T10:15:34.233Z,100685.98
2019-05-29T10:20:38.609Z,100689.40
2019-05-29T10:25:42.960Z,100687.59
2019-05-29T10:30:48.258Z,100694.28
2019-05-29T10:35:55.293Z,100709.19
2019-05-29T10:41:06.330Z,100709.50
2019-05-29T10:46:05.351Z,100713.86
2019-05-29T10:51:09.747Z,100708.64
2019-05-29T10:56:14.123Z,100724.95
2019-05-29T11:01:18.609Z,100724.03
2019-05-29T11:06:24.078Z,100722.34
2019-05-29T11:11:28.454Z,100717.14
2019-05-29T11:16:32.817Z,100721.63
2019-05-29T11:21:37.182Z,100725.58
2019-05-29T11:26:41.555Z,100720.31
2019-05-29T11:31:46.135Z,100727.95
2019-05-29T11:36:50.547Z,100723.80
2019-05-29T11:41:54.911Z,100724.80
2019-05-29T11:47:00.349Z,100718.06
2019-05-29T11:52:21.467Z,100718.35
2019-05-29T11:57:11.229Z,100724.41
2019-05-29T12:02:16.376Z,100717.10
2019-05-29T12:07:20.756Z,100715.98
2019-05-29T12:12:25.170Z,100722.48
2019-05-29T12:17:29.867Z,100722.48
2019-05-29T12:22:34.405Z,100718.61
2019-05-29T12:27:39.788Z,100727.77
2019-05-29T12:32:44.172Z,100732.86
2019-05-29T12:37:48.645Z,100725.02
2019-05-29T12:42:53.590Z,100715.94
2019-05-29T12:47:58.272Z,100731.02
2019-05-29T12:53:07.131Z,100720.11
2019-05-29T12:58:12.855Z,100716.17
2019-05-29T13:03:38.874Z,100707.66
2019-05-29T13:08:43.515Z,100727.12
2019-05-29T13:13:56.199Z,100711.80
2019-05-29T13:19:01.100Z,100722.47
2019-05-29T13:24:11.704Z,100715.40
2019-05-29T13:29:16.570Z,100720.48
2019-05-29T13:34:22.488Z,100719.21
2019-05-29T13:39:29.761Z,100727.78
2019-05-29T13:44:35.505Z,100716.64
2019-05-29T13:49:39.840Z,100709.12
2019-05-29T13:54:44.219Z,100717.66
2019-05-29T13:59:48.748Z,100716.28
2019-05-29T14:04:53.108Z,100716.05
2019-05-29T14:09:58.698Z,100719.89
2019-05-29T14:15:04.531Z,100719.45
2019-05-29T14:20:13.031Z,100719.41
2019-05-29T14:25:18.067Z,100728.61
2019-05-29T14:30:22.659Z,100718.52
2019-05-29T14:35:27.164Z,100719.19
2019-05-29T14:40:31.498Z,100706.61
2019-05-29T14:45:35.934Z,100716.58
2019-05-29T14:50:40.391Z,100721.45
2019-05-29T14:55:45.216Z,100728.04
2019-05-29T15:00:50.006Z,100731.30
2019-05-29T15:05:54.477Z,100724.86
2019-05-29T15:10:58.877Z,100724.77
2019-05-29T15:16:04.505Z,100729.03
2019-05-29T15:21:09.138Z,100722.75
2019-05-29T15:26:13.766Z,100724.52
2019-05-29T15:31:18.201Z,100721.41
2019-05-29T15:36:22.590Z,100727.83
2019-05-29T15:41:28.094Z,100710.79
2019-05-29T15:46:32.515Z,100722.85
2019-05-29T15:51:36.886Z,100719.88
2019-05-29T15:56:49.912Z,100723.69
2019-05-29T16:01:53.208Z,100722.88
2019-05-29T16:06:57.579Z,100730.58
2019-05-29T16:12:01.962Z,100732.77
2019-05-29T16:17:06.339Z,100726.23
2019-05-29T16:22:10.706Z,100725.16
2019-05-29T16:27:16.069Z,100741.08
2019-05-29T16:32:21.971Z,100745.58
2019-05-29T16:37:26.484Z,100744.92
2019-05-29T16:42:30.846Z,100746.80
2019-05-29T16:47:35.328Z,100756.22
2019-05-29T16:52:39.721Z,100756.50
2019-05-29T16:57:44.083Z,100759.00
2019-05-29T17:02:48.531Z,100759.20
2019-05-29T17:07:52.982Z,100763.61
2019-05-29T17:12:57.710Z,100766.48
2019-05-29T17:18:03.945Z,100776.09
2019-05-29T17:23:08.573Z,100779.37
2019-05-29T17:28:13.114Z,100778.84
2019-05-29T17:33:18.970Z,100788.39
2019-05-29T17:38:25.460Z,100785.00
2019-05-29T17:43:30.608Z,100791.97
2019-05-29T17:48:38.914Z,100804.09
2019-05-29T17:53:46.329Z,100796.40
2019-05-29T17:58:50.984Z,100802.14
2019-05-29T18:03:56.949Z,100818.70
2019-05-29T18:09:05.714Z,100818.20
2019-05-29T18:14:19.440Z,100822.95
2019-05-29T18:19:24.113Z,100825.25
2019-05-29T18:24:28.810Z,100823.63
2019-05-29T18:29:34.654Z,100826.19
2019-05-29T18:34:44.438Z,100833.40
2019-05-29T18:39:50.826Z,100842.39
2019-05-29T18:44:59.906Z,100847.02
2019-05-29T18:50:06.839Z,100842.35
2019-05-29T18:55:13.417Z,100852.08
2019-05-29T19:00:18.537Z,100858.59
2019-05-29T19:05:23.615Z,100864.56
2019-05-29T19:10:28.170Z,100874.20
2019-05-29T19:15:32.522Z,100879.81
2019-05-29T19:20:36.902Z,100880.89
2019-05-29T19:25:41.384Z,100891.56
2019-05-29T19:30:45.790Z,100900.66
2019-05-29T19:35:50.185Z,100909.75
2019-05-29T19:40:54.545Z,100914.09
2019-05-29T19:45:58.928Z,100920.73
2019-05-29T19:51:03.340Z,100925.45
2019-05-29T19:56:07.706Z,100933.28
2019-05-29T20:01:12.154Z,100939.06
2019-05-29T20:06:16.491Z,100953.37
2019-05-29T20:11:20.874Z,100955.20
2019-05-29T20:16:25.294Z,100962.17
2019-05-29T20:21:30.631Z,100962.63
2019-05-29T20:26:35.271Z,100972.02
2019-05-29T20:31:39.781Z,100990.41
2019-05-29T20:36:44.150Z,100988.79
2019-05-29T20:41:48.575Z,100996.59
2019-05-29T20:46:52.952Z,100998.75
2019-05-29T20:51:57.413Z,101003.25
2019-05-29T20:57:03.645Z,101009.48
2019-05-29T21:02:09.688Z,101003.34
2019-05-29T21:07:15.244Z,101014.62
2019-05-29T21:12:19.715Z,101020.47
2019-05-29T21:17:24.087Z,101020.47
2019-05-29T21:22:28.431Z,101023.77
2019-05-29T21:27:32.802Z,101021.84
2019-05-29T21:32:37.862Z,101021.03
2019-05-29T21:37:42.557Z,101028.20
2019-05-29T21:42:47.108Z,101036.08
2019-05-29T21:47:51.474Z,101041.34
2019-05-29T21:52:55.885Z,101048.48
2019-05-29T21:58:00.275Z,101044.29
2019-05-29T22:03:05.387Z,101055.95
2019-05-29T22:08:09.778Z,101060.53
2019-05-29T22:13:14.173Z,101067.73
2019-05-29T22:18:18.502Z,101068.19
2019-05-29T22:23:22.853Z,101071.05
2019-05-29T22:28:27.245Z,101073.73
2019-05-29T22:33:31.610Z,101078.12
2019-05-29T22:38:35.959Z,101081.66
2019-05-29T22:43:40.400Z,101082.95
2019-05-29T22:48:44.747Z,101081.53
2019-05-29T22:53:49.120Z,101085.48
2019-05-29T22:58:54.025Z,101088.08
2019-05-29T23:03:58.501Z,101084.18
2019-05-29T23:09:02.879Z,101087.13
2019-05-29T23:14:08.380Z,101087.50
2019-05-29T23:19:12.736Z,101085.25
2019-05-29T23:24:17.120Z,101091.17
2019-05-29T23:29:21.475Z,101091.27
2019-05-29T23:34:27.064Z,101094.81
2019-05-29T23:39:31.505Z,101096.07
2019-05-29T23:44:35.896Z,101099.66
2019-05-29T23:49:40.390Z,101098.30
2019-05-29T23:54:44.792Z,101095.86
